sensor_id;sensor_type;location;lat;lon;timestamp;pressure;altitude;pressure_sealevel;temperature;humidity
20612;BME280;10465;42.686;23.364;2022-09-09T00:06:53;95202.84;;;22.27;60.24
20612;BME280;10465;42.686;23.364;2022-09-09T00:09:22;95213.72;;;22.34;60.19
20612;BME280;10465;42.686;23.364;2022-09-09T00:12:00;95189.31;;;22.20;60.08
20612;BME280;10465;42.686;23.364;2022-09-09T00:14:42;95206.00;;;22.33;60.08
20612;BME280;10465;42.686;23.364;2022-09-09T00:17:17;95207.44;;;22.23;60.98
20612;BME280;10465;42.686;23.364;2022-09-09T00:19:54;95206.13;;;22.10;61.47
20612;BME280;10465;42.686;23.364;2022-09-09T00:22:25;95189.88;;;22.03;61.49
20612;BME280;10465;42.686;23.364;2022-09-09T00:24:54;95198.91;;;22.17;61.28
20612;BME280;10465;42.686;23.364;2022-09-09T00:27:50;95185.78;;;22.16;61.61
20612;BME280;10465;42.686;23.364;2022-09-09T00:30:27;95183.75;;;22.06;62.14
20612;BME280;10465;42.686;23.364;2022-09-09T00:33:03;95175.56;;;21.95;62.72
20612;BME280;10465;42.686;23.364;2022-09-09T00:35:38;95177.03;;;21.89;63.06
20612;BME280;10465;42.686;23.364;2022-09-09T00:38:25;95174.72;;;21.87;63.18
20612;BME280;10465;42.686;23.364;2022-09-09T00:41:13;95178.16;;;21.84;63.44
20612;BME280;10465;42.686;23.364;2022-09-09T00:43:49;95174.69;;;21.84;63.61
20612;BME280;10465;42.686;23.364;2022-09-09T00:49:46;95162.31;;;21.79;63.40
20612;BME280;10465;42.686;23.364;2022-09-09T00:55:13;95170.28;;;21.68;64.17
20612;BME280;10465;42.686;23.364;2022-09-09T00:57:40;95150.34;;;21.43;64.17
20612;BME280;10465;42.686;23.364;2022-09-09T01:08:01;95167.03;;;21.52;62.15
20612;BME280;10465;42.686;23.364;2022-09-09T01:10:41;95094.59;;;21.13;61.79
20612;BME280;10465;42.686;23.364;2022-09-09T01:13:22;95168.63;;;21.57;62.01
20612;BME280;10465;42.686;23.364;2022-09-09T01:15:49;95138.22;;;21.26;62.71
20612;BME280;10465;42.686;23.364;2022-09-09T01:18:21;95135.91;;;21.24;62.87
20612;BME280;10465;42.686;23.364;2022-09-09T01:26:48;95147.06;;;21.27;63.11
20612;BME280;10465;42.686;23.364;2022-09-09T01:29:17;95171.50;;;21.41;63.29
20612;BME280;10465;42.686;23.364;2022-09-09T01:32:00;95164.94;;;21.38;62.84
20612;BME280;10465;42.686;23.364;2022-09-09T01:34:29;95176.06;;;21.37;62.86
20612;BME280;10465;42.686;23.364;2022-09-09T01:37:12;95172.31;;;21.15;63.29
20612;BME280;10465;42.686;23.364;2022-09-09T01:39:43;95178.88;;;21.17;63.87
20612;BME280;10465;42.686;23.364;2022-09-09T01:42:12;95177.09;;;21.29;63.38
20612;BME280;10465;42.686;23.364;2022-09-09T01:44:38;95162.72;;;21.17;63.08
20612;BME280;10465;42.686;23.364;2022-09-09T01:47:05;95186.28;;;21.24;63.17
20612;BME280;10465;42.686;23.364;2022-09-09T01:49:31;95155.19;;;21.00;63.64
20612;BME280;10465;42.686;23.364;2022-09-09T01:51:58;95182.59;;;21.09;64.66
20612;BME280;10465;42.686;23.364;2022-09-09T01:54:27;95177.16;;;21.06;64.49
20612;BME280;10465;42.686;23.364;2022-09-09T02:04:53;95186.16;;;21.17;63.95
20612;BME280;10465;42.686;23.364;2022-09-09T02:07:49;95186.13;;;21.13;63.80
20612;BME280;10465;42.686;23.364;2022-09-09T02:10:24;95188.03;;;21.13;63.86
20612;BME280;10465;42.686;23.364;2022-09-09T02:13:03;95171.22;;;20.93;64.47
20612;BME280;10465;42.686;23.364;2022-09-09T02:15:44;95178.22;;;20.97;64.89
20612;BME280;10465;42.686;23.364;2022-09-09T02:18:14;95140.88;;;20.92;64.57
20612;BME280;10465;42.686;23.364;2022-09-09T02:20:44;95169.53;;;21.08;64.40
20612;BME280;10465;42.686;23.364;2022-09-09T02:23:11;95168.09;;;20.87;65.27
20612;BME280;10465;42.686;23.364;2022-09-09T02:25:38;95162.66;;;20.84;65.39
20612;BME280;10465;42.686;23.364;2022-09-09T02:28:07;95166.88;;;20.85;65.82
20612;BME280;10465;42.686;23.364;2022-09-09T02:30:37;95170.06;;;20.90;65.55
20612;BME280;10465;42.686;23.364;2022-09-09T02:33:05;95143.56;;;20.66;65.22
20612;BME280;10465;42.686;23.364;2022-09-09T02:35:32;95161.34;;;20.74;64.99
20612;BME280;10465;42.686;23.364;2022-09-09T02:38:06;95176.47;;;20.82;65.16
20612;BME280;10465;42.686;23.364;2022-09-09T02:40:32;95153.91;;;20.64;65.20
20612;BME280;10465;42.686;23.364;2022-09-09T02:42:58;95112.09;;;20.43;65.33
20612;BME280;10465;42.686;23.364;2022-09-09T02:45:27;95175.88;;;20.69;65.81
20612;BME280;10465;42.686;23.364;2022-09-09T02:50:33;95187.78;;;20.68;65.62
20612;BME280;10465;42.686;23.364;2022-09-09T02:53:07;95198.19;;;20.70;65.47
20612;BME280;10465;42.686;23.364;2022-09-09T02:55:58;95188.69;;;20.76;65.31
20612;BME280;10465;42.686;23.364;2022-09-09T02:58:27;95178.13;;;20.64;65.79
20612;BME280;10465;42.686;23.364;2022-09-09T03:00:53;95190.09;;;20.66;66.13
20612;BME280;10465;42.686;23.364;2022-09-09T03:03:19;95183.19;;;20.69;66.16
20612;BME280;10465;42.686;23.364;2022-09-09T03:05:45;95185.88;;;20.69;65.98
20612;BME280;10465;42.686;23.364;2022-09-09T03:08:11;95197.66;;;20.61;66.04
20612;BME280;10465;42.686;23.364;2022-09-09T03:10:38;95193.22;;;20.72;65.33
20612;BME280;10465;42.686;23.364;2022-09-09T03:13:04;95191.94;;;20.62;65.20
20612;BME280;10465;42.686;23.364;2022-09-09T03:15:31;95190.84;;;20.44;66.04
20612;BME280;10465;42.686;23.364;2022-09-09T03:17:57;95164.84;;;20.29;65.79
20612;BME280;10465;42.686;23.364;2022-09-09T03:20:27;95200.81;;;20.43;65.63
20612;BME280;10465;42.686;23.364;2022-09-09T03:22:53;95193.34;;;20.33;65.75
20612;BME280;10465;42.686;23.364;2022-09-09T03:25:19;95182.50;;;20.26;66.56
20612;BME280;10465;42.686;23.364;2022-09-09T03:27:45;95185.91;;;20.23;67.00
20612;BME280;10465;42.686;23.364;2022-09-09T03:30:10;95153.69;;;20.04;67.08
20612;BME280;10465;42.686;23.364;2022-09-09T03:32:36;95184.41;;;20.25;66.94
20612;BME280;10465;42.686;23.364;2022-09-09T03:35:02;95192.47;;;20.25;67.00
20612;BME280;10465;42.686;23.364;2022-09-09T03:37:28;95191.09;;;20.35;66.79
20612;BME280;10465;42.686;23.364;2022-09-09T03:39:53;95179.19;;;20.36;66.47
20612;BME280;10465;42.686;23.364;2022-09-09T03:42:22;95191.81;;;20.32;66.66
20612;BME280;10465;42.686;23.364;2022-09-09T03:44:48;95172.75;;;20.18;66.37
20612;BME280;10465;42.686;23.364;2022-09-09T03:47:24;95179.25;;;20.17;66.89
20612;BME280;10465;42.686;23.364;2022-09-09T03:49:50;95191.25;;;20.23;67.22
20612;BME280;10465;42.686;23.364;2022-09-09T03:52:15;95189.53;;;20.11;67.44
20612;BME280;10465;42.686;23.364;2022-09-09T03:54:41;95191.59;;;20.21;67.52
20612;BME280;10465;42.686;23.364;2022-09-09T03:57:10;95203.63;;;20.28;67.16
20612;BME280;10465;42.686;23.364;2022-09-09T03:59:36;95195.16;;;20.25;67.35
20612;BME280;10465;42.686;23.364;2022-09-09T04:02:02;95182.94;;;20.09;67.71
20612;BME280;10465;42.686;23.364;2022-09-09T04:04:28;95132.13;;;19.77;67.53
20612;BME280;10465;42.686;23.364;2022-09-09T04:06:53;95209.31;;;20.22;67.31
20612;BME280;10465;42.686;23.364;2022-09-09T04:09:19;95194.59;;;20.16;67.19
20612;BME280;10465;42.686;23.364;2022-09-09T04:11:45;95206.50;;;20.15;66.94
20612;BME280;10465;42.686;23.364;2022-09-09T04:14:11;95187.47;;;20.05;67.02
20612;BME280;10465;42.686;23.364;2022-09-09T04:16:38;95202.53;;;20.09;66.66
20612;BME280;10465;42.686;23.364;2022-09-09T04:19:04;95195.22;;;20.06;66.75
20612;BME280;10465;42.686;23.364;2022-09-09T04:21:31;95194.69;;;20.00;67.08
20612;BME280;10465;42.686;23.364;2022-09-09T04:23:57;95194.44;;;20.06;67.24
20612;BME280;10465;42.686;23.364;2022-09-09T04:26:22;95189.41;;;20.04;67.31
20612;BME280;10465;42.686;23.364;2022-09-09T04:28:48;95178.72;;;20.08;66.58
20612;BME280;10465;42.686;23.364;2022-09-09T04:31:21;95187.81;;;20.22;66.23
20612;BME280;10465;42.686;23.364;2022-09-09T04:33:49;95179.50;;;20.08;65.87
20612;BME280;10465;42.686;23.364;2022-09-09T04:36:14;95202.41;;;20.25;65.04
20612;BME280;10465;42.686;23.364;2022-09-09T04:38:40;95176.88;;;20.12;65.02
20612;BME280;10465;42.686;23.364;2022-09-09T04:41:06;95187.38;;;20.20;65.21
20612;BME280;10465;42.686;23.364;2022-09-09T04:43:32;95210.69;;;20.36;64.26
20612;BME280;10465;42.686;23.364;2022-09-09T04:45:58;95199.53;;;20.34;64.17
20612;BME280;10465;42.686;23.364;2022-09-09T04:48:26;95198.19;;;20.24;64.27
20612;BME280;10465;42.686;23.364;2022-09-09T04:51:01;95212.41;;;20.24;64.16
20612;BME280;10465;42.686;23.364;2022-09-09T04:53:27;95197.84;;;20.25;64.65
20612;BME280;10465;42.686;23.364;2022-09-09T04:58:29;95175.31;;;20.11;65.62
20612;BME280;10465;42.686;23.364;2022-09-09T05:00:54;95186.78;;;20.31;65.65
20612;BME280;10465;42.686;23.364;2022-09-09T05:03:21;95165.53;;;20.22;65.55
20612;BME280;10465;42.686;23.364;2022-09-09T05:05:46;95199.22;;;20.39;65.51
20612;BME280;10465;42.686;23.364;2022-09-09T05:08:12;95168.63;;;20.24;65.53
20612;BME280;10465;42.686;23.364;2022-09-09T05:10:38;95181.63;;;20.45;65.18
20612;BME280;10465;42.686;23.364;2022-09-09T05:13:04;95159.34;;;20.44;64.99
20612;BME280;10465;42.686;23.364;2022-09-09T05:15:30;95166.00;;;20.51;65.47
20612;BME280;10465;42.686;23.364;2022-09-09T05:17:57;95180.81;;;20.64;65.53
20612;BME280;10465;42.686;23.364;2022-09-09T05:20:24;95166.66;;;20.67;65.48
20612;BME280;10465;42.686;23.364;2022-09-09T05:22:53;95192.19;;;20.80;65.16
20612;BME280;10465;42.686;23.364;2022-09-09T05:25:19;95163.63;;;20.72;64.96
20612;BME280;10465;42.686;23.364;2022-09-09T05:27:44;95182.78;;;20.93;64.22
20612;BME280;10465;42.686;23.364;2022-09-09T05:30:10;95181.66;;;20.94;64.26
20612;BME280;10465;42.686;23.364;2022-09-09T05:32:36;95156.25;;;20.92;64.24
20612;BME280;10465;42.686;23.364;2022-09-09T05:35:01;95176.06;;;21.07;64.09
20612;BME280;10465;42.686;23.364;2022-09-09T05:37:27;95175.41;;;21.17;63.44
20612;BME280;10465;42.686;23.364;2022-09-09T05:39:54;95166.94;;;21.18;63.20
20612;BME280;10465;42.686;23.364;2022-09-09T05:42:20;95155.78;;;21.16;62.58
20612;BME280;10465;42.686;23.364;2022-09-09T05:44:45;95161.50;;;21.11;62.44
20612;BME280;10465;42.686;23.364;2022-09-09T05:47:11;95182.19;;;21.34;61.87
20612;BME280;10465;42.686;23.364;2022-09-09T05:49:36;95175.03;;;21.18;61.75
20612;BME280;10465;42.686;23.364;2022-09-09T05:52:02;95154.59;;;21.14;61.30
20612;BME280;10465;42.686;23.364;2022-09-09T05:54:29;95181.13;;;21.42;60.96
20612;BME280;10465;42.686;23.364;2022-09-09T05:56:54;95179.59;;;21.41;60.81
20612;BME280;10465;42.686;23.364;2022-09-09T05:59:19;95178.34;;;21.35;60.44
20612;BME280;10465;42.686;23.364;2022-09-09T06:01:45;95187.44;;;21.53;59.85
20612;BME280;10465;42.686;23.364;2022-09-09T06:04:11;95181.31;;;21.56;58.73
20612;BME280;10465;42.686;23.364;2022-09-09T06:06:38;95204.66;;;21.79;57.56
20612;BME280;10465;42.686;23.364;2022-09-09T06:09:06;95198.53;;;21.82;58.19
20612;BME280;10465;42.686;23.364;2022-09-09T06:11:35;95188.09;;;21.77;58.25
20612;BME280;10465;42.686;23.364;2022-09-09T06:14:01;95202.84;;;21.90;57.81
20612;BME280;10465;42.686;23.364;2022-09-09T06:16:28;95202.16;;;21.96;57.38
20612;BME280;10465;42.686;23.364;2022-09-09T06:18:55;95212.22;;;22.03;57.39
20612;BME280;10465;42.686;23.364;2022-09-09T06:21:23;95199.59;;;22.11;56.70
20612;BME280;10465;42.686;23.364;2022-09-09T06:23:50;95196.81;;;22.00;56.82
20612;BME280;10465;42.686;23.364;2022-09-09T06:26:20;95201.81;;;22.02;56.52
20612;BME280;10465;42.686;23.364;2022-09-09T06:28:47;95209.22;;;22.08;55.87
20612;BME280;10465;42.686;23.364;2022-09-09T06:31:16;95212.06;;;22.23;55.69
20612;BME280;10465;42.686;23.364;2022-09-09T06:33:43;95190.84;;;22.17;55.70
20612;BME280;10465;42.686;23.364;2022-09-09T06:36:14;95192.88;;;22.31;55.44
20612;BME280;10465;42.686;23.364;2022-09-09T06:38:42;95171.31;;;22.31;55.08
20612;BME280;10465;42.686;23.364;2022-09-09T06:41:09;95192.31;;;22.56;54.90
20612;BME280;10465;42.686;23.364;2022-09-09T06:43:35;95179.97;;;22.55;54.84
20612;BME280;10465;42.686;23.364;2022-09-09T06:46:03;95200.56;;;22.74;54.44
20612;BME280;10465;42.686;23.364;2022-09-09T06:48:29;95183.25;;;22.82;54.19
20612;BME280;10465;42.686;23.364;2022-09-09T06:51:11;95190.16;;;22.76;53.75
20612;BME280;10465;42.686;23.364;2022-09-09T06:53:38;95191.72;;;22.80;53.88
20612;BME280;10465;42.686;23.364;2022-09-09T06:58:40;95201.97;;;23.12;53.23
20612;BME280;10465;42.686;23.364;2022-09-09T07:01:20;95202.06;;;23.26;53.35
20612;BME280;10465;42.686;23.364;2022-09-09T07:03:48;95216.41;;;23.41;51.55
20612;BME280;10465;42.686;23.364;2022-09-09T07:06:20;95206.38;;;23.41;51.78
20612;BME280;10465;42.686;23.364;2022-09-09T07:08:50;95209.50;;;23.47;51.01
20612;BME280;10465;42.686;23.364;2022-09-09T07:11:16;95199.84;;;23.50;51.31
20612;BME280;10465;42.686;23.364;2022-09-09T07:13:42;95183.25;;;23.48;51.01
20612;BME280;10465;42.686;23.364;2022-09-09T07:16:09;95178.63;;;23.48;50.80
20612;BME280;10465;42.686;23.364;2022-09-09T07:18:35;95197.66;;;23.73;50.27
20612;BME280;10465;42.686;23.364;2022-09-09T07:21:02;95191.50;;;23.80;50.45
20612;BME280;10465;42.686;23.364;2022-09-09T07:23:29;95185.75;;;23.88;49.42
20612;BME280;10465;42.686;23.364;2022-09-09T07:25:56;95184.97;;;23.91;49.66
20612;BME280;10465;42.686;23.364;2022-09-09T07:28:23;95200.09;;;24.14;49.01
20612;BME280;10465;42.686;23.364;2022-09-09T07:31:00;95193.16;;;24.27;48.16
20612;BME280;10465;42.686;23.364;2022-09-09T07:33:29;95181.16;;;24.21;47.73
20612;BME280;10465;42.686;23.364;2022-09-09T07:38:43;95184.69;;;24.61;48.22
20612;BME280;10465;42.686;23.364;2022-09-09T07:41:12;95178.88;;;24.73;47.57
20612;BME280;10465;42.686;23.364;2022-09-09T07:43:39;95185.44;;;24.94;47.29
20612;BME280;10465;42.686;23.364;2022-09-09T07:46:06;95166.13;;;24.81;47.36
20612;BME280;10465;42.686;23.364;2022-09-09T07:48:31;95194.31;;;25.05;47.01
20612;BME280;10465;42.686;23.364;2022-09-09T07:51:27;95183.88;;;25.10;46.15
20612;BME280;10465;42.686;23.364;2022-09-09T07:53:56;95198.94;;;25.36;45.95
20612;BME280;10465;42.686;23.364;2022-09-09T07:56:29;95186.09;;;25.48;46.07
20612;BME280;10465;42.686;23.364;2022-09-09T07:58:56;95197.63;;;25.77;45.08
20612;BME280;10465;42.686;23.364;2022-09-09T08:01:37;95177.81;;;25.87;45.11
20612;BME280;10465;42.686;23.364;2022-09-09T08:04:06;95183.13;;;26.08;44.25
20612;BME280;10465;42.686;23.364;2022-09-09T08:06:38;95192.28;;;26.32;43.98
20612;BME280;10465;42.686;23.364;2022-09-09T08:09:05;95188.72;;;26.43;44.47
20612;BME280;10465;42.686;23.364;2022-09-09T08:11:31;95190.97;;;26.55;44.58
20612;BME280;10465;42.686;23.364;2022-09-09T08:13:58;95190.47;;;26.71;44.21
20612;BME280;10465;42.686;23.364;2022-09-09T08:16:30;95184.59;;;26.76;43.23
20612;BME280;10465;42.686;23.364;2022-09-09T08:18:56;95187.66;;;26.81;43.04
20612;BME280;10465;42.686;23.364;2022-09-09T08:21:27;95196.91;;;26.87;43.14
20612;BME280;10465;42.686;23.364;2022-09-09T08:23:54;95185.47;;;27.07;42.86
20612;BME280;10465;42.686;23.364;2022-09-09T08:28:51;95192.44;;;27.08;41.89
20612;BME280;10465;42.686;23.364;2022-09-09T08:31:25;95187.78;;;27.12;42.64
20612;BME280;10465;42.686;23.364;2022-09-09T08:33:53;95163.34;;;27.08;42.02
20612;BME280;10465;42.686;23.364;2022-09-09T08:36:21;95171.72;;;27.25;42.50
20612;BME280;10465;42.686;23.364;2022-09-09T08:38:48;95175.34;;;27.15;42.91
20612;BME280;10465;42.686;23.364;2022-09-09T08:43:48;95184.31;;;27.08;43.67
20612;BME280;10465;42.686;23.364;2022-09-09T08:46:27;95165.72;;;27.03;43.01
20612;BME280;10465;42.686;23.364;2022-09-09T08:49:06;95178.13;;;27.04;43.35
20612;BME280;10465;42.686;23.364;2022-09-09T08:51:38;95173.22;;;26.92;43.80
20612;BME280;10465;42.686;23.364;2022-09-09T08:54:04;95151.97;;;26.79;43.77
20612;BME280;10465;42.686;23.364;2022-09-09T08:56:31;95173.88;;;27.03;43.80
20612;BME280;10465;42.686;23.364;2022-09-09T08:58:59;95171.78;;;27.18;43.77
20612;BME280;10465;42.686;23.364;2022-09-09T09:12:20;95165.69;;;27.44;41.98
20612;BME280;10465;42.686;23.364;2022-09-09T09:14:48;95160.28;;;27.41;42.15
20612;BME280;10465;42.686;23.364;2022-09-09T09:17:17;95156.78;;;27.74;41.52
20612;BME280;10465;42.686;23.364;2022-09-09T09:19:45;95160.41;;;27.95;41.67
20612;BME280;10465;42.686;23.364;2022-09-09T09:22:25;95161.22;;;28.19;41.03
20612;BME280;10465;42.686;23.364;2022-09-09T09:30:30;95141.38;;;27.64;41.62
20612;BME280;10465;42.686;23.364;2022-09-09T09:35:28;95158.88;;;27.63;42.31
20612;BME280;10465;42.686;23.364;2022-09-09T09:37:54;95153.09;;;27.57;42.11
20612;BME280;10465;42.686;23.364;2022-09-09T09:40:21;95164.53;;;27.42;42.05
20612;BME280;10465;42.686;23.364;2022-09-09T09:42:53;95155.66;;;27.38;42.24
20612;BME280;10465;42.686;23.364;2022-09-09T09:45:23;95165.81;;;27.33;41.78
20612;BME280;10465;42.686;23.364;2022-09-09T09:48:04;95141.75;;;27.32;42.10
20612;BME280;10465;42.686;23.364;2022-09-09T09:50:31;95141.94;;;27.48;42.09
20612;BME280;10465;42.686;23.364;2022-09-09T09:53:17;95124.16;;;27.44;42.28
20612;BME280;10465;42.686;23.364;2022-09-09T09:55:52;95130.75;;;27.43;41.91
20612;BME280;10465;42.686;23.364;2022-09-09T09:58:18;95115.13;;;27.20;43.00
20612;BME280;10465;42.686;23.364;2022-09-09T10:00:51;95137.50;;;27.31;42.61
20612;BME280;10465;42.686;23.364;2022-09-09T10:03:26;95126.56;;;27.34;42.57
20612;BME280;10465;42.686;23.364;2022-09-09T10:05:53;95121.25;;;27.27;42.07
20612;BME280;10465;42.686;23.364;2022-09-09T10:08:19;95126.28;;;27.25;42.52
20612;BME280;10465;42.686;23.364;2022-09-09T10:11:02;95135.97;;;27.26;42.24
20612;BME280;10465;42.686;23.364;2022-09-09T10:24:05;95146.91;;;26.81;44.85
20612;BME280;10465;42.686;23.364;2022-09-09T10:34:58;95145.88;;;26.68;44.65
20612;BME280;10465;42.686;23.364;2022-09-09T10:40:33;95152.25;;;26.51;45.58
20612;BME280;10465;42.686;23.364;2022-09-09T10:46:23;95153.78;;;26.52;46.03
20612;BME280;10465;42.686;23.364;2022-09-09T10:54:32;95157.69;;;26.47;45.57
20612;BME280;10465;42.686;23.364;2022-09-09T10:57:08;95158.44;;;26.44;46.72
20612;BME280;10465;42.686;23.364;2022-09-09T10:59:42;95129.88;;;26.29;46.16
20612;BME280;10465;42.686;23.364;2022-09-09T11:02:27;95145.72;;;26.37;46.01
20612;BME280;10465;42.686;23.364;2022-09-09T11:05:08;95151.53;;;26.36;46.66
20612;BME280;10465;42.686;23.364;2022-09-09T11:07:41;95150.78;;;26.35;47.13
20612;BME280;10465;42.686;23.364;2022-09-09T11:10:21;95156.59;;;26.34;46.89
20612;BME280;10465;42.686;23.364;2022-09-09T11:12:50;95153.59;;;26.21;47.44
20612;BME280;10465;42.686;23.364;2022-09-09T11:15:23;95152.44;;;26.22;47.84
20612;BME280;10465;42.686;23.364;2022-09-09T11:17:54;95135.84;;;26.13;47.73
20612;BME280;10465;42.686;23.364;2022-09-09T11:20:22;95124.97;;;26.13;47.16
20612;BME280;10465;42.686;23.364;2022-09-09T11:23:01;95135.28;;;26.32;47.41
20612;BME280;10465;42.686;23.364;2022-09-09T11:25:38;95137.94;;;26.39;47.77
20612;BME280;10465;42.686;23.364;2022-09-09T11:33:27;95135.09;;;26.57;46.98
20612;BME280;10465;42.686;23.364;2022-09-09T11:36:24;95117.66;;;26.58;47.18
20612;BME280;10465;42.686;23.364;2022-09-09T11:38:53;95116.94;;;26.51;47.39
20612;BME280;10465;42.686;23.364;2022-09-09T11:41:22;95092.16;;;26.45;47.56
20612;BME280;10465;42.686;23.364;2022-09-09T11:43:52;95102.53;;;26.57;47.32
20612;BME280;10465;42.686;23.364;2022-09-09T11:46:20;95068.13;;;26.44;47.44
20612;BME280;10465;42.686;23.364;2022-09-09T11:49:02;95093.53;;;26.64;47.98
20612;BME280;10465;42.686;23.364;2022-09-09T11:51:30;95090.38;;;26.69;47.93
20612;BME280;10465;42.686;23.364;2022-09-09T11:56:34;95051.09;;;26.81;47.47
20612;BME280;10465;42.686;23.364;2022-09-09T11:59:49;95049.44;;;26.91;47.30
20612;BME280;10465;42.686;23.364;2022-09-09T12:02:24;95031.69;;;26.82;47.17
20612;BME280;10465;42.686;23.364;2022-09-09T12:07:50;95074.41;;;27.47;45.77
20612;BME280;10465;42.686;23.364;2022-09-09T12:12:44;95058.50;;;27.76;44.79
20612;BME280;10465;42.686;23.364;2022-09-09T12:17:43;95056.72;;;27.89;44.84
20612;BME280;10465;42.686;23.364;2022-09-09T12:20:18;95046.38;;;27.80;45.32
20612;BME280;10465;42.686;23.364;2022-09-09T12:23:00;95045.69;;;28.00;44.90
20612;BME280;10465;42.686;23.364;2022-09-09T12:30:58;95051.78;;;28.54;44.47
20612;BME280;10465;42.686;23.364;2022-09-09T12:33:39;95041.03;;;28.67;44.10
20612;BME280;10465;42.686;23.364;2022-09-09T12:36:14;95020.31;;;28.73;43.22
20612;BME280;10465;42.686;23.364;2022-09-09T12:38:42;95026.19;;;28.92;43.44
20612;BME280;10465;42.686;23.364;2022-09-09T12:41:25;95032.25;;;28.79;43.55
20612;BME280;10465;42.686;23.364;2022-09-09T12:43:51;95011.78;;;28.71;44.01
20612;BME280;10465;42.686;23.364;2022-09-09T12:46:35;95017.84;;;28.59;44.15
20612;BME280;10465;42.686;23.364;2022-09-09T12:49:02;95011.13;;;28.44;44.53
20612;BME280;10465;42.686;23.364;2022-09-09T12:51:30;95015.88;;;28.40;45.23
20612;BME280;10465;42.686;23.364;2022-09-09T12:53:58;95024.00;;;28.20;45.42
20612;BME280;10465;42.686;23.364;2022-09-09T12:56:26;95021.50;;;28.05;46.35
20612;BME280;10465;42.686;23.364;2022-09-09T12:58:53;95016.03;;;28.05;45.61
20612;BME280;10465;42.686;23.364;2022-09-09T13:01:45;95001.03;;;28.21;45.92
20612;BME280;10465;42.686;23.364;2022-09-09T13:04:20;95012.25;;;28.46;45.28
20612;BME280;10465;42.686;23.364;2022-09-09T13:06:47;95008.28;;;28.71;44.45
20612;BME280;10465;42.686;23.364;2022-09-09T13:09:12;95000.56;;;28.89;44.26
20612;BME280;10465;42.686;23.364;2022-09-09T13:11:42;94999.38;;;28.90;43.91
20612;BME280;10465;42.686;23.364;2022-09-09T13:14:18;94997.63;;;29.00;43.81
20612;BME280;10465;42.686;23.364;2022-09-09T13:16:58;94989.22;;;28.71;44.47
20612;BME280;10465;42.686;23.364;2022-09-09T13:19:24;94991.31;;;28.63;44.49
20612;BME280;10465;42.686;23.364;2022-09-09T13:21:54;95001.25;;;28.73;44.69
20612;BME280;10465;42.686;23.364;2022-09-09T13:27:05;94992.44;;;28.66;44.30
20612;BME280;10465;42.686;23.364;2022-09-09T13:29:51;94984.38;;;28.39;45.34
20612;BME280;10465;42.686;23.364;2022-09-09T13:32:20;94982.44;;;28.39;45.36
20612;BME280;10465;42.686;23.364;2022-09-09T13:34:55;94982.44;;;28.39;45.53
20612;BME280;10465;42.686;23.364;2022-09-09T13:37:33;94983.13;;;28.43;45.27
20612;BME280;10465;42.686;23.364;2022-09-09T13:40:00;94968.94;;;28.32;45.71
20612;BME280;10465;42.686;23.364;2022-09-09T13:42:32;94973.75;;;28.24;45.73
20612;BME280;10465;42.686;23.364;2022-09-09T13:45:01;94975.94;;;28.09;46.13
20612;BME280;10465;42.686;23.364;2022-09-09T13:49:54;94960.38;;;27.36;48.07
20612;BME280;10465;42.686;23.364;2022-09-09T13:52:20;94958.16;;;27.54;48.37
20612;BME280;10465;42.686;23.364;2022-09-09T13:54:51;94957.50;;;27.70;47.80
20612;BME280;10465;42.686;23.364;2022-09-09T13:57:18;94951.94;;;27.81;48.64
20612;BME280;10465;42.686;23.364;2022-09-09T13:59:46;94964.28;;;27.85;48.18
20612;BME280;10465;42.686;23.364;2022-09-09T14:02:12;94937.56;;;27.80;47.83
20612;BME280;10465;42.686;23.364;2022-09-09T14:04:37;94957.22;;;27.92;47.71
20612;BME280;10465;42.686;23.364;2022-09-09T14:07:03;94948.94;;;28.19;46.99
20612;BME280;10465;42.686;23.364;2022-09-09T14:09:29;94953.81;;;28.51;46.22
20612;BME280;10465;42.686;23.364;2022-09-09T14:11:54;94962.81;;;28.88;45.25
20612;BME280;10465;42.686;23.364;2022-09-09T14:14:23;94949.13;;;29.11;43.69
20612;BME280;10465;42.686;23.364;2022-09-09T14:16:48;94943.34;;;29.09;43.78
20612;BME280;10465;42.686;23.364;2022-09-09T14:19:13;94950.50;;;29.19;43.77
20612;BME280;10465;42.686;23.364;2022-09-09T14:21:39;94903.13;;;28.97;44.09
20612;BME280;10465;42.686;23.364;2022-09-09T14:24:05;94953.47;;;29.25;43.46
20612;BME280;10465;42.686;23.364;2022-09-09T14:26:31;94946.16;;;29.22;43.95
20612;BME280;10465;42.686;23.364;2022-09-09T14:28:56;94937.03;;;29.28;43.70
20612;BME280;10465;42.686;23.364;2022-09-09T14:31:23;94940.91;;;29.31;43.85
20612;BME280;10465;42.686;23.364;2022-09-09T14:33:49;94946.56;;;29.20;43.93
20612;BME280;10465;42.686;23.364;2022-09-09T14:36:16;94931.47;;;28.99;43.99
20612;BME280;10465;42.686;23.364;2022-09-09T14:38:41;94931.06;;;28.81;44.60
20612;BME280;10465;42.686;23.364;2022-09-09T14:41:13;94915.50;;;28.62;44.74
20612;BME280;10465;42.686;23.364;2022-09-09T14:43:39;94943.75;;;28.68;44.92
20612;BME280;10465;42.686;23.364;2022-09-09T14:46:09;94918.78;;;28.53;44.84
20612;BME280;10465;42.686;23.364;2022-09-09T14:48:35;94936.59;;;28.57;44.98
20612;BME280;10465;42.686;23.364;2022-09-09T14:51:23;94934.44;;;28.49;45.02
20612;BME280;10465;42.686;23.364;2022-09-09T14:53:55;94930.75;;;28.35;45.32
20612;BME280;10465;42.686;23.364;2022-09-09T14:56:24;94939.25;;;28.18;45.62
20612;BME280;10465;42.686;23.364;2022-09-09T14:58:53;94941.69;;;28.12;45.41
20612;BME280;10465;42.686;23.364;2022-09-09T15:01:20;94935.50;;;27.88;46.25
20612;BME280;10465;42.686;23.364;2022-09-09T15:03:56;94937.63;;;27.77;46.53
20612;BME280;10465;42.686;23.364;2022-09-09T15:06:27;94948.13;;;27.75;46.50
20612;BME280;10465;42.686;23.364;2022-09-09T15:08:54;94918.38;;;27.41;47.00
20612;BME280;10465;42.686;23.364;2022-09-09T15:11:23;94950.06;;;27.51;47.56